createdAt,value
2018-12-14T00:00:02.376Z,1.00
2018-12-14T00:02:32.824Z,1.00
2018-12-14T00:05:01.432Z,1.00
2018-12-14T00:07:29.779Z,1.00
2018-12-14T00:09:58.143Z,1.00
2018-12-14T00:12:26.556Z,1.00
2018-12-14T00:14:54.933Z,1.10
2018-12-14T00:17:23.341Z,1.00
2018-12-14T00:19:51.656Z,1.00
2018-12-14T00:22:20.044Z,1.00
2018-12-14T00:24:52.312Z,1.00
2018-12-14T00:27:21.055Z,1.00
2018-12-14T00:29:49.616Z,0.90
2018-12-14T00:32:18.291Z,0.90
2018-12-14T00:34:46.643Z,1.10
2018-12-14T00:37:14.997Z,1.00
2018-12-14T00:39:43.368Z,0.90
2018-12-14T00:42:11.718Z,0.90
2018-12-14T00:44:40.101Z,0.90
2018-12-14T00:47:08.467Z,0.80
2018-12-14T00:49:36.825Z,0.70
2018-12-14T00:52:05.152Z,0.70
2018-12-14T00:54:33.539Z,0.70
2018-12-14T00:57:01.892Z,0.70
2018-12-14T00:59:30.228Z,0.90
2018-12-14T01:01:58.636Z,1.00
2018-12-14T01:04:26.987Z,0.90
2018-12-14T01:06:55.336Z,1.00
2018-12-14T01:09:23.676Z,1.00
2018-12-14T01:11:58.085Z,1.00
2018-12-14T01:14:22.367Z,0.80
2018-12-14T01:16:50.707Z,0.80
2018-12-14T01:19:19.168Z,0.80
2018-12-14T01:21:47.506Z,0.90
2018-12-14T01:24:15.960Z,1.00
2018-12-14T01:26:44.319Z,0.90
2018-12-14T01:29:12.683Z,1.00
2018-12-14T01:31:42.037Z,0.90
2018-12-14T01:34:10.378Z,0.90
2018-12-14T01:36:38.824Z,1.00
2018-12-14T01:39:08.254Z,0.90
2018-12-14T01:41:36.627Z,0.90
2018-12-14T01:44:04.961Z,0.90
2018-12-14T01:46:33.320Z,1.00
2018-12-14T01:49:01.663Z,1.00
2018-12-14T01:51:30.072Z,1.10
2018-12-14T01:53:58.407Z,1.00
2018-12-14T01:56:26.878Z,1.00
2018-12-14T01:58:55.243Z,0.90
2018-12-14T02:01:23.580Z,0.90
2018-12-14T02:03:51.936Z,0.80
2018-12-14T02:06:20.275Z,0.90
2018-12-14T02:08:48.676Z,0.90
2018-12-14T02:11:17.040Z,0.90
2018-12-14T02:13:45.359Z,0.80
2018-12-14T02:16:13.800Z,0.90
2018-12-14T02:18:42.133Z,0.90
2018-12-14T02:21:10.501Z,0.90
2018-12-14T02:23:38.940Z,0.90
2018-12-14T02:26:07.409Z,0.80
2018-12-14T02:28:35.930Z,0.90
2018-12-14T02:31:04.255Z,0.90
2018-12-14T02:33:32.583Z,0.80
2018-12-14T02:36:00.971Z,0.90
2018-12-14T02:38:29.326Z,0.90
2018-12-14T02:40:57.651Z,0.90
2018-12-14T02:43:26.209Z,0.90
2018-12-14T02:45:54.548Z,0.80
2018-12-14T02:48:22.939Z,0.80
2018-12-14T02:50:51.357Z,0.80
2018-12-14T02:53:19.772Z,0.80
2018-12-14T02:55:48.127Z,0.80
2018-12-14T02:58:16.479Z,0.80
2018-12-14T03:00:46.265Z,0.80
2018-12-14T03:03:14.681Z,0.80
2018-12-14T03:05:43.043Z,0.80
2018-12-14T03:08:11.393Z,0.80
2018-12-14T03:10:39.769Z,0.60
2018-12-14T03:13:08.096Z,0.50
2018-12-14T03:15:36.454Z,0.70
2018-12-14T03:18:04.871Z,0.80
2018-12-14T03:20:33.245Z,0.80
2018-12-14T03:23:01.664Z,0.60
2018-12-14T03:25:30.108Z,0.60
2018-12-14T03:27:58.474Z,0.50
2018-12-14T03:30:26.833Z,0.50
2018-12-14T03:32:55.308Z,0.60
2018-12-14T03:35:23.731Z,0.60
2018-12-14T03:37:52.192Z,0.60
2018-12-14T03:40:20.548Z,0.70
2018-12-14T03:42:48.940Z,0.70
2018-12-14T03:45:17.313Z,0.70
2018-12-14T03:47:45.647Z,0.60
2018-12-14T03:50:14.718Z,0.50
2018-12-14T03:52:43.054Z,0.50
2018-12-14T03:55:11.447Z,0.50
2018-12-14T03:57:39.789Z,0.50
2018-12-14T04:00:09.746Z,0.60
2018-12-14T04:02:38.256Z,0.60
2018-12-14T04:05:06.645Z,0.60
2018-12-14T04:07:34.972Z,0.50
2018-12-14T04:10:03.459Z,0.70
2018-12-14T04:12:31.803Z,0.70
2018-12-14T04:15:00.289Z,0.70
2018-12-14T04:17:28.640Z,0.70
2018-12-14T04:19:56.980Z,0.60
2018-12-14T04:22:25.347Z,0.60
2018-12-14T04:24:54.511Z,0.60
2018-12-14T04:27:22.972Z,0.60
2018-12-14T04:29:51.322Z,0.50
2018-12-14T04:32:19.695Z,0.50
2018-12-14T04:34:48.036Z,0.60
2018-12-14T04:37:16.402Z,0.60
2018-12-14T04:39:44.830Z,0.50
2018-12-14T04:42:13.225Z,0.40
2018-12-14T04:44:41.664Z,0.40
2018-12-14T04:47:10.384Z,0.40
2018-12-14T04:49:39.165Z,0.40
2018-12-14T04:52:11.112Z,0.40
2018-12-14T04:54:39.684Z,0.40
2018-12-14T04:57:08.036Z,0.60
2018-12-14T04:59:36.526Z,0.60
2018-12-14T05:02:04.901Z,0.50
2018-12-14T05:04:33.241Z,0.40
2018-12-14T05:07:01.636Z,0.40
2018-12-14T05:09:30.091Z,0.50
2018-12-14T05:11:58.428Z,0.60
2018-12-14T05:14:26.781Z,0.40
2018-12-14T05:16:55.148Z,0.30
2018-12-14T05:19:23.471Z,0.30
2018-12-14T05:21:51.964Z,0.40
2018-12-14T05:24:20.364Z,0.40
2018-12-14T05:26:49.628Z,0.40
2018-12-14T05:29:17.931Z,0.50
2018-12-14T05:31:46.388Z,0.60
2018-12-14T05:34:14.721Z,0.60
2018-12-14T05:36:43.064Z,0.60
2018-12-14T05:39:11.395Z,0.40
2018-12-14T05:41:39.750Z,0.30
2018-12-14T05:44:08.078Z,0.50
2018-12-14T05:46:36.519Z,0.50
2018-12-14T05:49:04.927Z,0.50
2018-12-14T05:51:33.296Z,0.50
2018-12-14T05:54:01.626Z,0.60
2018-12-14T05:56:30.196Z,0.60
2018-12-14T05:58:58.584Z,0.50
2018-12-14T06:01:26.939Z,0.60
2018-12-14T06:03:55.619Z,0.50
2018-12-14T06:06:23.972Z,0.50
2018-12-14T06:08:52.300Z,0.50
2018-12-14T06:11:20.836Z,0.50
2018-12-14T06:13:49.206Z,0.60
2018-12-14T06:16:17.539Z,0.60
2018-12-14T06:18:46.031Z,0.50
2018-12-14T06:21:14.863Z,0.50
2018-12-14T06:23:43.429Z,0.40
2018-12-14T06:26:11.873Z,0.30
2018-12-14T06:28:40.221Z,0.40
2018-12-14T06:31:08.592Z,0.30
2018-12-14T06:33:37.143Z,0.50
2018-12-14T06:36:05.479Z,0.50
2018-12-14T06:38:33.853Z,0.60
2018-12-14T06:41:02.172Z,0.60
2018-12-14T06:43:30.756Z,0.60
2018-12-14T06:45:59.711Z,0.50
2018-12-14T06:48:28.359Z,0.40
2018-12-14T06:50:57.012Z,0.50
2018-12-14T06:53:25.530Z,0.40
2018-12-14T06:55:53.863Z,0.50
2018-12-14T06:58:22.208Z,0.30
2018-12-14T07:00:50.819Z,0.10
2018-12-14T07:03:19.213Z,0.30
2018-12-14T07:05:48.454Z,0.40
2018-12-14T07:08:16.784Z,0.40
2018-12-14T07:10:45.137Z,0.40
2018-12-14T07:13:21.959Z,0.40
2018-12-14T07:15:49.108Z,0.40
2018-12-14T07:18:17.663Z,0.40
2018-12-14T07:20:46.123Z,0.40
2018-12-14T07:23:14.512Z,0.40
2018-12-14T07:25:42.884Z,0.30
2018-12-14T07:28:11.215Z,0.40
2018-12-14T07:30:39.577Z,0.40
2018-12-14T07:33:08.594Z,0.50
2018-12-14T07:35:41.860Z,0.40
2018-12-14T07:38:07.303Z,0.20
2018-12-14T07:40:35.647Z,0.40
2018-12-14T07:43:04.008Z,0.40
2018-12-14T07:45:33.188Z,0.40
2018-12-14T07:48:01.611Z,0.50
2018-12-14T07:50:29.991Z,0.50
2018-12-14T07:52:58.628Z,0.20
2018-12-14T07:55:27.361Z,0.10
2018-12-14T07:57:55.683Z,0.20
2018-12-14T08:00:24.171Z,0.20
2018-12-14T08:02:52.496Z,0.20
2018-12-14T08:05:20.875Z,0.30
2018-12-14T08:07:49.201Z,0.40
2018-12-14T08:10:17.539Z,0.20
2018-12-14T08:12:45.940Z,0.30
2018-12-14T08:15:14.492Z,0.30
2018-12-14T08:17:42.872Z,0.30
2018-12-14T08:20:16.967Z,0.40
2018-12-14T08:22:41.880Z,0.30
2018-12-14T08:25:10.410Z,0.20
2018-12-14T08:27:38.748Z,0.30
2018-12-14T08:30:07.882Z,0.40
2018-12-14T08:32:36.236Z,0.30
2018-12-14T08:35:04.831Z,0.10
2018-12-14T08:37:33.253Z,0.20
2018-12-14T08:40:01.672Z,0.30
2018-12-14T08:42:30.004Z,0.20
2018-12-14T08:44:58.372Z,0.30
2018-12-14T08:47:27.016Z,0.30
2018-12-14T08:49:55.476Z,0.40
2018-12-14T08:52:23.891Z,0.30
2018-12-14T08:54:52.263Z,0.20
2018-12-14T08:57:20.704Z,0.20
2018-12-14T08:59:49.238Z,0.20
2018-12-14T09:02:17.660Z,0.40
2018-12-14T09:04:46.012Z,0.50
2018-12-14T09:07:14.475Z,0.50
2018-12-14T09:09:43.012Z,0.50
2018-12-14T09:12:11.356Z,0.50
2018-12-14T09:14:39.718Z,0.30
2018-12-14T09:17:08.054Z,0.40
2018-12-14T09:19:36.455Z,0.40
2018-12-14T09:22:04.800Z,0.40
2018-12-14T09:24:33.164Z,0.40
2018-12-14T09:27:01.500Z,0.40
2018-12-14T09:29:29.863Z,0.40
2018-12-14T09:31:58.389Z,0.50
2018-12-14T09:34:26.752Z,0.50
2018-12-14T09:36:55.177Z,0.50
2018-12-14T09:39:23.671Z,0.40
2018-12-14T09:41:52.116Z,0.50
2018-12-14T09:44:20.495Z,0.40
2018-12-14T09:46:48.849Z,0.50
2018-12-14T09:49:17.275Z,0.50
2018-12-14T09:51:45.611Z,0.50
2018-12-14T09:54:13.968Z,0.50
2018-12-14T09:56:42.332Z,0.50
2018-12-14T09:59:10.784Z,0.50
2018-12-14T10:01:39.176Z,0.50
2018-12-14T10:04:07.554Z,0.50
2018-12-14T10:06:36.181Z,0.60
2018-12-14T10:09:05.810Z,0.60
2018-12-14T10:11:34.288Z,0.50
2018-12-14T10:14:02.632Z,0.60
2018-12-14T10:16:31.015Z,0.60
2018-12-14T10:19:00.242Z,0.50
2018-12-14T10:21:28.573Z,0.50
2018-12-14T10:23:57.123Z,0.50
2018-12-14T10:26:25.560Z,0.40
2018-12-14T10:28:53.899Z,0.50
2018-12-14T10:31:22.675Z,0.50
2018-12-14T10:33:51.027Z,0.50
2018-12-14T10:36:19.529Z,0.60
2018-12-14T10:38:48.172Z,0.50
2018-12-14T10:41:16.541Z,0.40
2018-12-14T10:43:44.874Z,0.40
2018-12-14T10:46:13.259Z,0.40
2018-12-14T10:48:41.931Z,0.40
2018-12-14T10:51:10.291Z,0.20
2018-12-14T10:53:38.664Z,0.30
2018-12-14T10:56:07.033Z,0.40
2018-12-14T10:58:36.156Z,0.40
2018-12-14T11:01:14.282Z,0.20
2018-12-14T11:03:40.514Z,0.40
2018-12-14T11:06:08.854Z,0.40
2018-12-14T11:08:37.272Z,0.60
2018-12-14T11:11:05.600Z,0.80
2018-12-14T11:13:34.017Z,0.60
2018-12-14T11:16:02.397Z,0.60
2018-12-14T11:18:31.019Z,0.70
2018-12-14T11:20:59.404Z,0.80
2018-12-14T11:23:27.936Z,0.60
2018-12-14T11:25:56.597Z,0.40
2018-12-14T11:28:25.127Z,0.40
2018-12-14T11:30:53.483Z,0.50
2018-12-14T11:33:21.820Z,0.50
2018-12-14T11:35:50.352Z,0.50
2018-12-14T11:38:18.742Z,0.40
2018-12-14T11:40:47.104Z,0.30
2018-12-14T11:43:16.079Z,0.20
2018-12-14T11:45:44.503Z,0.40
2018-12-14T11:48:13.017Z,0.40
2018-12-14T11:50:41.975Z,0.20
2018-12-14T11:53:16.252Z,0.30
2018-12-14T11:55:44.621Z,0.50
2018-12-14T11:58:13.027Z,0.40
2018-12-14T12:00:41.412Z,0.50
2018-12-14T12:03:09.756Z,0.50
2018-12-14T12:05:38.164Z,0.60
2018-12-14T12:08:08.157Z,0.60
2018-12-14T12:10:36.565Z,0.70
2018-12-14T12:13:05.528Z,0.70
2018-12-14T12:15:33.924Z,0.60
2018-12-14T12:18:02.267Z,0.60
2018-12-14T12:20:30.632Z,0.50
2018-12-14T12:22:59.149Z,0.60
2018-12-14T12:25:27.470Z,0.50
2018-12-14T12:27:55.855Z,0.60
2018-12-14T12:30:24.212Z,0.60
2018-12-14T12:32:52.599Z,0.60
2018-12-14T12:35:21.036Z,0.50
2018-12-14T12:37:49.442Z,0.50
2018-12-14T12:40:17.795Z,0.40
2018-12-14T12:42:46.267Z,0.60
2018-12-14T12:45:14.617Z,0.50
2018-12-14T12:47:43.038Z,0.30
2018-12-14T12:50:11.384Z,0.30
2018-12-14T12:52:39.744Z,0.50
2018-12-14T12:55:09.075Z,0.40
2018-12-14T12:57:37.413Z,0.40
2018-12-14T13:00:06.295Z,0.30
2018-12-14T13:02:34.808Z,0.20
2018-12-14T13:05:03.168Z,0.40
2018-12-14T13:07:31.552Z,0.60
2018-12-14T13:09:59.928Z,0.50
2018-12-14T13:12:28.288Z,0.70
2018-12-14T13:14:56.744Z,0.70
2018-12-14T13:17:25.120Z,0.60
2018-12-14T13:19:53.463Z,0.50
2018-12-14T13:22:21.928Z,0.50
2018-12-14T13:24:50.264Z,0.50
2018-12-14T13:27:20.460Z,0.50
2018-12-14T13:29:49.083Z,0.40
2018-12-14T13:32:17.499Z,0.40
2018-12-14T13:34:45.889Z,0.50
2018-12-14T13:37:14.534Z,0.50
2018-12-14T13:39:43.142Z,0.50
2018-12-14T13:42:11.606Z,0.50
2018-12-14T13:44:46.387Z,0.50
2018-12-14T13:47:10.619Z,0.70
2018-12-14T13:49:39.150Z,0.70
2018-12-14T13:52:07.550Z,0.60
2018-12-14T13:54:35.893Z,0.50
2018-12-14T13:57:04.527Z,0.50
2018-12-14T13:59:32.911Z,0.50
2018-12-14T14:02:01.240Z,0.50
2018-12-14T14:04:29.664Z,0.50
2018-12-14T14:06:58.050Z,0.60
2018-12-14T14:09:26.478Z,0.60
2018-12-14T14:11:55.492Z,0.40
2018-12-14T14:14:24.476Z,0.40
2018-12-14T14:16:53.237Z,0.50
2018-12-14T14:19:22.802Z,0.50
2018-12-14T14:21:51.489Z,0.10
2018-12-14T14:24:19.955Z,0.40
2018-12-14T14:26:48.738Z,0.20
2018-12-14T14:29:17.101Z,0.30
2018-12-14T14:31:45.454Z,0.40
2018-12-14T14:34:13.927Z,0.30
2018-12-14T14:36:42.344Z,0.20
2018-12-14T14:39:10.695Z,0.30
2018-12-14T14:41:39.225Z,0.40
2018-12-14T14:44:07.779Z,0.30
2018-12-14T14:46:36.667Z,0.50
2018-12-14T14:49:05.983Z,0.40
2018-12-14T14:51:34.961Z,0.40
2018-12-14T14:54:03.364Z,0.30
2018-12-14T14:56:31.736Z,0.20
2018-12-14T14:59:00.208Z,0.20
2018-12-14T15:01:28.587Z,0.30
2018-12-14T15:03:56.971Z,0.30
2018-12-14T15:06:25.439Z,0.30
2018-12-14T15:08:54.234Z,0.30
2018-12-14T15:11:22.600Z,0.40
2018-12-14T15:13:51.124Z,0.40
2018-12-14T15:16:19.488Z,0.40
2018-12-14T15:18:47.891Z,0.20
2018-12-14T15:21:16.239Z,0.30
2018-12-14T15:23:44.622Z,0.30
2018-12-14T15:26:13.270Z,0.30
2018-12-14T15:28:41.711Z,0.20
2018-12-14T15:31:10.078Z,0.30
2018-12-14T15:33:38.484Z,0.30
2018-12-14T15:36:06.842Z,0.40
2018-12-14T15:38:35.232Z,0.30
2018-12-14T15:41:03.749Z,0.10
2018-12-14T15:43:32.305Z,0.00
2018-12-14T15:46:01.205Z,0.00
2018-12-14T15:48:29.675Z,0.10
2018-12-14T15:50:58.022Z,0.10
2018-12-14T15:53:26.363Z,0.00
2018-12-14T15:55:54.731Z,-0.10
2018-12-14T15:58:23.671Z,-0.20
2018-12-14T16:00:52.535Z,0.00
2018-12-14T16:03:20.920Z,0.00
2018-12-14T16:05:49.291Z,-0.20
2018-12-14T16:08:17.761Z,0.00
2018-12-14T16:10:46.698Z,0.00
2018-12-14T16:13:15.084Z,-0.10
2018-12-14T16:15:43.531Z,-0.10
2018-12-14T16:18:12.039Z,-0.10
2018-12-14T16:20:40.494Z,-0.10
2018-12-14T16:23:09.219Z,-0.10
2018-12-14T16:25:37.741Z,-0.20
2018-12-14T16:28:06.737Z,-0.20
2018-12-14T16:30:35.150Z,-0.20
2018-12-14T16:33:03.509Z,-0.20
2018-12-14T16:35:32.060Z,-0.20
2018-12-14T16:38:00.488Z,-0.10
2018-12-14T16:40:28.884Z,-0.10
2018-12-14T16:42:57.369Z,-0.10
2018-12-14T16:45:26.567Z,-0.10
2018-12-14T16:47:55.364Z,-0.10
2018-12-14T16:50:23.979Z,-0.10
2018-12-14T16:52:52.366Z,0.00
2018-12-14T16:55:20.768Z,0.00
2018-12-14T16:57:49.871Z,0.00
2018-12-14T17:00:18.441Z,0.00
2018-12-14T17:02:46.855Z,-0.10
2018-12-14T17:05:15.290Z,-0.10
2018-12-14T17:07:43.672Z,-0.10
2018-12-14T17:10:12.131Z,0.00
2018-12-14T17:12:40.546Z,-0.10
2018-12-14T17:15:09.531Z,-0.30
2018-12-14T17:17:37.899Z,-0.10
2018-12-14T17:20:06.344Z,-0.20
2018-12-14T17:22:34.725Z,-0.10
2018-12-14T17:25:03.221Z,-0.10
2018-12-14T17:27:31.735Z,-0.30
2018-12-14T17:30:00.214Z,-0.30
2018-12-14T17:32:28.581Z,-0.10
2018-12-14T17:34:57.132Z,-0.10
2018-12-14T17:37:25.636Z,-0.20
2018-12-14T17:39:54.303Z,-0.20
2018-12-14T17:42:22.672Z,-0.20
2018-12-14T17:44:51.652Z,-0.30
2018-12-14T17:47:20.056Z,-0.30
2018-12-14T17:49:48.520Z,-0.30
2018-12-14T17:52:17.095Z,-0.20
2018-12-14T17:54:45.518Z,-0.20
2018-12-14T17:57:13.983Z,-0.20
2018-12-14T17:59:42.363Z,-0.40
2018-12-14T18:02:11.024Z,-0.30
2018-12-14T18:04:39.437Z,-0.40
2018-12-14T18:07:08.072Z,-0.40
2018-12-14T18:09:37.082Z,-0.30
2018-12-14T18:12:05.460Z,-0.20
2018-12-14T18:14:33.880Z,-0.30
2018-12-14T18:17:02.237Z,-0.20
2018-12-14T18:19:30.583Z,-0.20
2018-12-14T18:21:59.062Z,-0.30
2018-12-14T18:24:27.656Z,-0.30
2018-12-14T18:26:56.198Z,-0.20
2018-12-14T18:29:24.641Z,-0.30
2018-12-14T18:31:53.041Z,-0.30
2018-12-14T18:34:21.476Z,-0.30
2018-12-14T18:36:49.893Z,-0.20
2018-12-14T18:39:18.306Z,-0.30
2018-12-14T18:41:46.764Z,-0.30
2018-12-14T18:44:15.163Z,-0.30
2018-12-14T18:46:43.623Z,-0.20
2018-12-14T18:49:12.117Z,-0.30
2018-12-14T18:51:40.521Z,-0.30
2018-12-14T18:54:09.204Z,-0.30
2018-12-14T18:56:37.701Z,-0.30
2018-12-14T18:59:06.369Z,-0.30
2018-12-14T19:01:34.940Z,-0.40
2018-12-14T19:04:03.324Z,-0.30
2018-12-14T19:06:31.788Z,-0.30
2018-12-14T19:09:00.172Z,-0.40
2018-12-14T19:11:28.598Z,-0.30
2018-12-14T19:13:56.987Z,-0.20
2018-12-14T19:16:25.418Z,-0.20
2018-12-14T19:18:55.162Z,-0.40
2018-12-14T19:21:25.057Z,-0.50
2018-12-14T19:23:54.190Z,-0.40
2018-12-14T19:26:24.463Z,-0.30
2018-12-14T19:28:52.827Z,-0.30
2018-12-14T19:31:21.258Z,-0.10
2018-12-14T19:33:49.613Z,0.00
2018-12-14T19:36:18.033Z,-0.20
2018-12-14T19:38:46.453Z,-0.40
2018-12-14T19:41:16.444Z,-0.50
2018-12-14T19:43:47.192Z,-0.40
2018-12-14T19:46:17.589Z,-0.30
2018-12-14T19:48:49.165Z,-0.30
2018-12-14T19:51:19.645Z,-0.10
2018-12-14T19:53:48.135Z,-0.10
2018-12-14T19:56:16.638Z,-0.10
2018-12-14T19:58:45.119Z,0.00
2018-12-14T20:01:13.480Z,-0.10
2018-12-14T20:03:41.897Z,-0.10
2018-12-14T20:06:12.872Z,-0.20
2018-12-14T20:08:41.245Z,-0.20
2018-12-14T20:11:09.591Z,-0.20
2018-12-14T20:13:38.022Z,-0.10
2018-12-14T20:16:12.580Z,-0.10
2018-12-14T20:18:36.928Z,-0.10
2018-12-14T20:21:05.342Z,-0.10
2018-12-14T20:23:33.889Z,0.00
2018-12-14T20:26:02.305Z,0.00
2018-12-14T20:28:30.686Z,-0.20
2018-12-14T20:30:59.068Z,-0.20
2018-12-14T20:33:27.864Z,-0.30
2018-12-14T20:35:56.226Z,-0.30
2018-12-14T20:38:24.662Z,-0.40
2018-12-14T20:40:53.045Z,-0.40
2018-12-14T20:43:21.385Z,-0.40
2018-12-14T20:45:49.935Z,-0.30
2018-12-14T20:48:18.291Z,-0.20
2018-12-14T20:50:46.667Z,-0.20
2018-12-14T20:53:15.069Z,-0.20
2018-12-14T20:55:44.060Z,-0.20
2018-12-14T20:58:12.425Z,-0.20
2018-12-14T21:00:40.919Z,-0.10
2018-12-14T21:03:09.426Z,-0.10
2018-12-14T21:05:37.992Z,-0.20
2018-12-14T21:08:06.347Z,-0.40
2018-12-14T21:10:34.751Z,-0.50
2018-12-14T21:13:03.112Z,-0.30
2018-12-14T21:15:31.483Z,-0.30
2018-12-14T21:18:00.140Z,-0.20
2018-12-14T21:20:28.541Z,-0.20
2018-12-14T21:22:56.936Z,-0.30
2018-12-14T21:25:25.372Z,-0.40
2018-12-14T21:27:53.744Z,-0.50
2018-12-14T21:30:22.177Z,-0.50
2018-12-14T21:32:50.548Z,-0.40
2018-12-14T21:35:19.222Z,-0.20
2018-12-14T21:37:48.849Z,-0.20
2018-12-14T21:40:17.667Z,-0.20
2018-12-14T21:42:46.473Z,-0.20
2018-12-14T21:45:15.267Z,-0.30
2018-12-14T21:47:44.048Z,-0.20
2018-12-14T21:50:12.877Z,-0.20
2018-12-14T21:52:41.580Z,-0.30
2018-12-14T21:55:10.588Z,-0.20
2018-12-14T21:57:40.144Z,-0.30
2018-12-14T22:00:10.427Z,-0.20
2018-12-14T22:02:40.467Z,-0.40
2018-12-14T22:05:09.414Z,-0.30
2018-12-14T22:07:38.054Z,-0.30
2018-12-14T22:10:08.506Z,-0.30
2018-12-14T22:12:37.217Z,-0.30
2018-12-14T22:15:06.580Z,-0.60
2018-12-14T22:17:35.294Z,-0.40
2018-12-14T22:20:03.993Z,-0.30
2018-12-14T22:22:32.878Z,-0.30
2018-12-14T22:25:02.268Z,-0.50
2018-12-14T22:27:32.333Z,-0.40
2018-12-14T22:30:01.181Z,-0.30
2018-12-14T22:32:29.876Z,-0.20
2018-12-14T22:34:58.880Z,-0.10
2018-12-14T22:37:27.939Z,-0.20
2018-12-14T22:39:56.883Z,-0.10
2018-12-14T22:42:26.606Z,-0.10
2018-12-14T22:44:56.307Z,-0.30
2018-12-14T22:47:25.571Z,-0.50
2018-12-14T22:49:54.547Z,-0.40
2018-12-14T22:52:23.143Z,-0.50
2018-12-14T22:54:52.324Z,-0.30
2018-12-14T22:57:21.636Z,-0.10
2018-12-14T22:59:50.526Z,-0.10
2018-12-14T23:02:19.427Z,-0.30
2018-12-14T23:04:48.848Z,-0.40
2018-12-14T23:07:17.687Z,-0.40
2018-12-14T23:09:46.374Z,-0.50
2018-12-14T23:12:15.284Z,-0.30
2018-12-14T23:14:43.924Z,-0.20
2018-12-14T23:17:12.698Z,-0.20
2018-12-14T23:19:42.220Z,-0.10
2018-12-14T23:22:11.103Z,-0.10
2018-12-14T23:24:40.031Z,-0.10
2018-12-14T23:27:08.679Z,-0.20
2018-12-14T23:29:37.236Z,-0.20
2018-12-14T23:32:06.762Z,-0.20
2018-12-14T23:34:35.701Z,-0.20
2018-12-14T23:37:04.379Z,-0.10
2018-12-14T23:39:33.328Z,-0.20
2018-12-14T23:42:01.676Z,-0.20
2018-12-14T23:44:30.051Z,-0.10
2018-12-14T23:46:59.013Z,-0.10
2018-12-14T23:49:27.621Z,0.00
2018-12-14T23:51:56.027Z,0.00
2018-12-14T23:54:24.747Z,-0.10
2018-12-14T23:56:58.811Z,-0.20
2018-12-14T23:59:27.187Z,-0.30
